South Daytona, FL

10:13 PM EDT on May 24, 2015 (GMT -0400)
Daytona Beach International | | Change Station
CLOSE
Current Station
Airport
Location: Daytona Beach,
Elevation: 33 ft
Nearby Weather Stations

Elev 33 ft 29.18 °N, 81.06 °W | Updated 20 minutes ago

Partly Cloudy
Partly Cloudy
76 °F
Feels Like 76 °F
N
7
Wind Variable Wind from East

Today
High -- | Low -- °F
--% Chance of Precip.
Yesterday
High -- | Low -- °F
Precip. -- in
6:28 AM 8:14 PM
Waxing Crescent, 44% visible
Pressure 30.20 in
Visibility 10.0 miles
Clouds Few 2400 ft
Scattered Clouds 9000 ft
Scattered Clouds 11000 ft
Dew Point 71 °F
Humidity 85%
Rainfall 0.02 in
Snow Depth Not available.
UV 0 out of 12
Pollen 5.10 out of 12
Air Quality Not available.
Flu Activity Sporadic
METAR KDAB 250153Z 08006KT 10SM FEW024 SCT090 SCT110 24/22 A3020 RMK AO2 SLP226 T02440217

More Conditions Fewer Conditions

Pressure 30.20 in
Visibility 10.0 miles
Clouds Few 2400 ft
Scattered Clouds 9000 ft
Scattered Clouds 11000 ft
Dew Point 71 °F
Humidity 85%
Rainfall 0.02 in
Snow Depth Not available.
UV 0 out of 12
Pollen 5.10 out of 12
Air Quality Not available.
Flu Activity Sporadic
METAR KDAB 250153Z 08006KT 10SM FEW024 SCT090 SCT110 24/22 A3020 RMK AO2 SLP226 T02440217

More Conditions Fewer Conditions

Nowcast | as of 8:47 PM EDT on May 24, 2015

Isolated showers will move onshore from Atlantic through midnight across east central Florida and diminish in coverage as they move toward the interior. Slightly higher coverage is expected across Volusia County and the Treasure Coast. Rainfall amounts will be less than a quarter inch. Additional details...including graphics are available online at: http://www.Srh.NOAA.Gov/mlb/blog.Php

×

10-Day Weather Forecast

Almanac

Astronomy

May. 24, 2015 Rise Set
Actual Time
Civil Twilight
Nautical Twilight
Astronomical Twilight
Moon
Length of Visible Light
Length of Day
Tomorrow will be .
, % of the Moon is Illuminated

Today's Extremes

State Highs State Lows

Community

WunderPhotos

Upload Photos

1,823,924 photos uploaded!

WunderBlogs® & News

Nearby

Air Quality

  Air Quality AQ Index Pollutant
Not available.

Snow Depth

Station Depth Elevation

Earthquake Activity

City Distance Mag. Time & Date
Minimum magnitude displayed is 2.5.

Coastal Water Temperatures

Place Temperature

Stations

Nearby Weather Stations

Station Location Temp. Windchill Dew Point Humidity Wind Precip. Elev Updated Type